Terminal Aerodrome Forecast
Issued by NWS Wilmington, OH

Current Version | Previous Version | Graphics & Text | Print | Product List | Glossary On
Versions: 1 2 3 4 5 6 7 8 9 10 11 12 13 14 15 16
715
FTUS41 KILN 121123
TAFCMH
TAF
KCMH 121123Z 1212/1312 19005KT P6SM OVC100
     FM121700 24009KT P6SM BKN025
     FM122000 27012G22KT 5SM -SHSN OVC018
     FM122300 30018G28KT 1SM -SHSN OVC018
     FM130300 31015G25KT 4SM -SHSN OVC025
     FM130900 31010G18KT P6SM BKN035=

USA.gov is the U.S. government's official web portal to all federal, state and local government web resources and services.